Time;durP1;ratioP1;P1;durP2;ratioP2;P2;SDS_P1;SDS_P2;PMS_P1;PMS_P2;Temp;Humidity;BMP_temperature;BMP_pressure;BME280_temperature;BME280_humidity;BME280_pressure;Samples;Min_cycle;Max_cycle;Signal;HPM_P1;HPM_P2
2023/12/27 00:01:31;;;;;;;3.75;2.22;;;9.20;77.40;;;;;;4989182;28;20050;-62
2023/12/27 00:03:56;;;;;;;5.03;2.40;;;9.30;77.50;;;;;;4990678;28;20041;-63
2023/12/27 00:06:22;;;;;;;3.92;2.30;;;9.30;77.50;;;;;;4988324;28;20038;-63
2023/12/27 00:08:47;;;;;;;7.07;2.38;;;9.30;77.50;;;;;;4989404;28;20030;-63
2023/12/27 00:11:17;;;;;;;5.28;2.55;;;9.30;77.50;;;;;;4990604;28;20038;-63
2023/12/27 00:13:43;;;;;;;7.18;2.38;;;9.20;77.50;;;;;;4990226;28;20391;-62
2023/12/27 00:16:09;;;;;;;13.05;4.90;;;9.20;77.50;;;;;;4990412;28;20049;-63
2023/12/27 00:18:35;;;;;;;8.05;4.07;;;9.20;77.70;;;;;;4989354;28;20181;-63
2023/12/27 00:21:00;;;;;;;7.95;3.22;;;9.20;77.90;;;;;;4989575;28;20050;-63
2023/12/27 00:23:27;;;;;;;6.60;2.90;;;9.20;77.90;;;;;;4989702;28;20450;-63
2023/12/27 00:25:53;;;;;;;9.50;3.05;;;9.20;78.00;;;;;;4989706;28;20426;-63
2023/12/27 00:28:19;;;;;;;8.43;2.72;;;9.10;78.00;;;;;;4990148;28;20118;-63
2023/12/27 00:30:48;;;;;;;5.05;2.30;;;9.20;78.00;;;;;;4986816;28;20046;-64
2023/12/27 00:33:18;;;;;;;5.75;2.60;;;9.20;78.10;;;;;;4989978;28;20034;-62
2023/12/27 00:35:43;;;;;;;6.13;2.33;;;9.20;78.10;;;;;;4989657;28;20143;-63
2023/12/27 00:38:09;;;;;;;3.80;2.00;;;9.20;78.20;;;;;;4989130;28;20802;-61
2023/12/27 00:40:34;;;;;;;5.55;2.20;;;9.20;78.20;;;;;;4989632;28;20046;-62
2023/12/27 00:43:00;;;;;;;7.93;2.60;;;9.20;78.20;;;;;;4989470;28;20030;-63
2023/12/27 00:45:25;;;;;;;9.05;3.17;;;9.20;78.20;;;;;;4988587;28;20046;-63
2023/12/27 00:47:52;;;;;;;5.97;2.30;;;9.30;78.20;;;;;;4988974;28;20601;-63
2023/12/27 00:50:19;;;;;;;6.15;2.45;;;9.30;78.20;;;;;;4988540;28;20046;-63
2023/12/27 00:52:44;;;;;;;4.05;2.08;;;9.30;78.20;;;;;;4988293;28;20042;-63
2023/12/27 00:55:10;;;;;;;5.25;2.47;;;9.30;78.20;;;;;;4984696;28;20050;-63
2023/12/27 00:57:35;;;;;;;4.38;2.53;;;9.30;78.20;;;;;;4981885;28;20034;-62
2023/12/27 01:00:01;;;;;;;6.18;2.80;;;9.30;78.20;;;;;;4989198;28;20038;-63
2023/12/27 01:02:27;;;;;;;6.55;2.65;;;9.30;78.10;;;;;;4988647;28;20039;-64
2023/12/27 01:04:55;;;;;;;3.60;2.25;;;9.30;78.00;;;;;;4987483;28;20030;-62
2023/12/27 01:07:22;;;;;;;5.15;2.78;;;9.40;77.90;;;;;;4988541;28;20039;-63
2023/12/27 01:09:47;;;;;;;5.43;2.67;;;9.40;77.90;;;;;;4987806;28;20181;-62
2023/12/27 01:12:13;;;;;;;7.65;2.78;;;9.30;78.60;;;;;;4989042;28;20468;-62
2023/12/27 01:14:39;;;;;;;5.90;2.50;;;9.30;77.70;;;;;;4989227;28;20045;-62
2023/12/27 01:17:04;;;;;;;3.67;2.33;;;9.30;77.70;;;;;;4987982;28;20506;-62
2023/12/27 01:19:30;;;;;;;8.35;2.58;;;9.20;77.60;;;;;;4987812;28;20038;-62
2023/12/27 01:21:55;;;;;;;4.50;2.40;;;9.20;77.50;;;;;;4989173;28;20580;-62
2023/12/27 01:24:21;;;;;;;6.82;2.45;;;9.10;77.50;;;;;;4988403;28;20035;-61
2023/12/27 01:26:46;;;;;;;6.22;2.65;;;9.10;77.60;;;;;;4988579;28;20031;-62
2023/12/27 01:29:12;;;;;;;3.75;2.30;;;9.00;77.70;;;;;;4988253;28;20039;-61
2023/12/27 01:31:38;;;;;;;3.88;2.25;;;9.00;77.90;;;;;;4986925;28;20057;-62
2023/12/27 01:34:03;;;;;;;4.95;2.38;;;8.90;78.00;;;;;;4988750;28;20041;-61
2023/12/27 01:36:29;;;;;;;5.70;2.60;;;8.90;78.20;;;;;;4988439;28;20125;-61
2023/12/27 01:38:54;;;;;;;7.10;2.80;;;8.80;78.40;;;;;;4987779;28;20376;-61
2023/12/27 01:41:20;;;;;;;5.45;2.63;;;8.80;78.50;;;;;;4988346;28;20061;-61
2023/12/27 01:43:46;;;;;;;6.32;3.10;;;8.80;78.60;;;;;;4988207;28;20077;-62
2023/12/27 01:46:12;;;;;;;6.00;2.67;;;8.80;78.60;;;;;;4988822;28;20454;-62
2023/12/27 01:48:40;;;;;;;5.22;2.72;;;8.70;78.70;;;;;;4988396;28;20073;-62
2023/12/27 01:51:07;;;;;;;5.28;3.10;;;8.70;78.70;;;;;;4986911;28;20096;-61
2023/12/27 01:53:33;;;;;;;7.38;2.90;;;8.70;78.70;;;;;;4986570;28;20445;-62
2023/12/27 01:56:01;;;;;;;6.18;2.92;;;8.70;78.70;;;;;;4987338;28;20066;-61
2023/12/27 01:58:27;;;;;;;4.53;2.63;;;8.70;78.70;;;;;;4988422;28;20050;-61
2023/12/27 02:00:56;;;;;;;5.60;2.70;;;8.70;78.70;;;;;;4987671;28;20045;-62
2023/12/27 02:03:22;;;;;;;5.13;2.92;;;8.70;78.60;;;;;;4988985;28;20038;-61
2023/12/27 02:05:49;;;;;;;5.32;3.00;;;8.70;78.60;;;;;;4987737;28;20037;-62
2023/12/27 02:08:15;;;;;;;7.32;2.70;;;8.70;78.60;;;;;;4989058;28;20528;-62
2023/12/27 02:10:42;;;;;;;5.40;2.95;;;8.70;78.60;;;;;;4987232;28;20073;-62
2023/12/27 02:13:08;;;;;;;5.25;3.08;;;8.70;78.60;;;;;;4987649;28;20050;-62
2023/12/27 02:15:35;;;;;;;4.80;2.90;;;8.70;78.60;;;;;;4988396;28;20073;-61
2023/12/27 02:18:03;;;;;;;5.03;3.20;;;8.70;78.50;;;;;;4987947;28;20102;-61
2023/12/27 02:20:29;;;;;;;5.65;2.90;;;8.70;78.60;;;;;;4987326;28;20035;-62
2023/12/27 02:22:57;;;;;;;5.55;2.90;;;8.70;78.60;;;;;;4986747;28;20042;-62
2023/12/27 02:25:23;;;;;;;5.72;3.20;;;8.70;78.50;;;;;;4988444;28;20061;-60
2023/12/27 02:27:49;;;;;;;8.35;3.13;;;8.70;78.60;;;;;;4987279;28;20073;-62
2023/12/27 02:30:19;;;;;;;7.47;2.85;;;8.70;78.40;;;;;;4987650;28;20040;-62
2023/12/27 02:32:46;;;;;;;4.68;3.00;;;8.70;78.50;;;;;;4987221;28;20387;-60
2023/12/27 02:35:12;;;;;;;5.75;2.63;;;8.70;78.40;;;;;;4987771;28;20050;-62
2023/12/27 02:37:37;;;;;;;4.90;2.95;;;8.70;78.40;;;;;;4986407;28;20038;-60
2023/12/27 02:40:03;;;;;;;8.30;3.05;;;8.70;78.20;;;;;;4987754;28;20525;-61
2023/12/27 02:42:29;;;;;;;5.72;3.20;;;8.80;78.20;;;;;;4988379;28;20038;-61
2023/12/27 02:44:55;;;;;;;6.00;3.13;;;8.80;78.20;;;;;;4987544;28;20560;-61
2023/12/27 02:47:20;;;;;;;5.07;3.03;;;8.70;78.00;;;;;;4988215;28;20042;-62
2023/12/27 02:49:46;;;;;;;5.47;2.75;;;8.70;78.00;;;;;;4988048;28;20403;-62
2023/12/27 02:52:12;;;;;;;7.15;3.03;;;8.70;78.00;;;;;;4986249;28;20088;-61
2023/12/27 02:54:37;;;;;;;6.13;2.78;;;8.70;78.00;;;;;;4985860;28;20185;-62
2023/12/27 02:57:03;;;;;;;4.63;2.80;;;8.70;77.90;;;;;;4987902;28;20077;-62
2023/12/27 02:59:29;;;;;;;5.72;2.75;;;8.70;77.90;;;;;;4987863;28;20034;-62
2023/12/27 03:01:54;;;;;;;8.30;2.70;;;8.60;77.90;;;;;;4987292;28;20122;-61
2023/12/27 03:04:20;;;;;;;4.78;2.97;;;8.70;78.00;;;;;;4987983;28;20030;-61
2023/12/27 03:06:45;;;;;;;4.03;2.72;;;8.70;78.00;;;;;;4986190;28;20031;-61
2023/12/27 03:09:11;;;;;;;5.97;2.55;;;8.60;78.00;;;;;;4986291;28;20041;-63
2023/12/27 03:11:37;;;;;;;6.28;2.85;;;8.70;78.00;;;;;;4987832;28;20042;-61
2023/12/27 03:14:04;;;;;;;6.25;2.80;;;8.60;77.90;;;;;;4986727;28;20402;-62
2023/12/27 03:16:29;;;;;;;6.18;3.20;;;8.60;77.90;;;;;;4988749;28;20043;-61
2023/12/27 03:18:55;;;;;;;7.72;2.97;;;8.60;77.80;;;;;;4990748;28;20036;-61
2023/12/27 03:21:21;;;;;;;7.78;3.42;;;8.60;77.90;;;;;;4990815;28;20126;-61
2023/12/27 03:23:47;;;;;;;6.07;3.22;;;8.50;77.90;;;;;;4991529;28;20113;-60
2023/12/27 03:26:13;;;;;;;4.97;3.05;;;8.50;77.90;;;;;;4991461;28;20472;-62
2023/12/27 03:28:38;;;;;;;7.22;3.28;;;8.40;77.90;;;;;;4990073;28;20122;-61
2023/12/27 03:31:04;;;;;;;8.23;3.50;;;8.40;77.90;;;;;;4990547;28;21164;-62
2023/12/27 03:33:29;;;;;;;7.43;3.28;;;8.40;77.90;;;;;;4990085;28;20042;-61
2023/12/27 03:35:55;;;;;;;5.57;3.17;;;8.40;77.90;;;;;;4991117;28;20042;-62
2023/12/27 03:38:21;;;;;;;7.00;3.58;;;8.30;77.90;;;;;;4990409;28;20030;-61
2023/12/27 03:40:46;;;;;;;9.45;3.42;;;8.30;78.70;;;;;;4990145;28;20407;-60
2023/12/27 03:43:12;;;;;;;5.72;3.25;;;8.30;78.00;;;;;;4990528;28;20046;-61
2023/12/27 03:45:38;;;;;;;8.35;3.30;;;8.30;78.00;;;;;;4991002;28;20042;-61
2023/12/27 03:48:04;;;;;;;7.25;3.35;;;8.20;78.00;;;;;;4988856;28;20106;-61
2023/12/27 03:50:30;;;;;;;5.97;3.15;;;8.20;78.10;;;;;;4988388;28;20117;-62
2023/12/27 03:52:56;;;;;;;7.38;3.05;;;8.20;78.20;;;;;;4989639;28;20509;-60
2023/12/27 03:55:24;;;;;;;9.07;2.90;;;8.20;78.30;;;;;;4990881;28;20042;-62
2023/12/27 03:57:50;;;;;;;7.03;3.17;;;8.20;78.30;;;;;;4989899;28;20038;-62
2023/12/27 04:00:15;;;;;;;4.38;3.15;;;8.20;78.10;;;;;;4990198;28;20042;-61
2023/12/27 04:02:41;;;;;;;7.00;2.88;;;8.20;78.00;;;;;;4989809;28;20117;-60
2023/12/27 04:05:07;;;;;;;6.10;3.33;;;8.20;78.10;;;;;;4990263;28;20048;-61
2023/12/27 04:07:32;;;;;;;6.50;3.47;;;8.20;78.10;;;;;;4989640;28;20513;-62
2023/12/27 04:09:58;;;;;;;6.97;3.15;;;8.20;78.00;;;;;;4990059;28;20290;-61
2023/12/27 04:12:24;;;;;;;4.65;2.90;;;8.20;78.00;;;;;;4990291;28;20046;-61
2023/12/27 04:14:49;;;;;;;5.55;3.15;;;8.20;78.10;;;;;;4987992;28;20061;-62
2023/12/27 04:17:15;;;;;;;5.53;3.15;;;8.20;78.20;;;;;;4990618;28;20054;-61
2023/12/27 04:19:41;;;;;;;9.57;3.40;;;8.20;78.10;;;;;;4989990;28;20030;-62
2023/12/27 04:22:06;;;;;;;5.30;3.00;;;8.20;78.20;;;;;;4990243;28;20038;-61
2023/12/27 04:24:32;;;;;;;5.70;3.15;;;8.10;78.00;;;;;;4989494;28;20123;-62
2023/12/27 04:26:58;;;;;;;5.95;3.00;;;8.20;78.10;;;;;;4989015;28;20039;-62
2023/12/27 04:29:23;;;;;;;5.82;3.38;;;8.10;78.00;;;;;;4987108;28;20466;-62
2023/12/27 04:31:49;;;;;;;6.78;3.50;;;8.10;78.00;;;;;;4989108;28;20033;-61
2023/12/27 04:34:15;;;;;;;6.45;3.22;;;8.10;77.90;;;;;;4989445;28;20049;-61
2023/12/27 04:36:40;;;;;;;7.30;3.38;;;8.10;77.90;;;;;;4989357;28;20038;-61
2023/12/27 04:39:09;;;;;;;4.10;2.67;;;8.10;77.90;;;;;;4990445;28;20035;-61
2023/12/27 04:41:34;;;;;;;3.40;3.00;;;8.10;77.80;;;;;;4988431;28;20074;-60
2023/12/27 04:44:00;;;;;;;5.95;3.05;;;8.10;77.70;;;;;;4989456;28;20521;-61
2023/12/27 04:46:26;;;;;;;7.30;3.47;;;8.00;77.60;;;;;;4989822;28;20518;-62
2023/12/27 04:48:51;;;;;;;6.45;3.55;;;8.00;77.50;;;;;;4989479;28;20042;-62
2023/12/27 04:51:17;;;;;;;5.90;3.55;;;8.00;77.40;;;;;;4988928;28;20414;-62
2023/12/27 04:53:43;;;;;;;4.40;3.17;;;7.90;77.20;;;;;;4988839;28;20387;-61
2023/12/27 04:56:09;;;;;;;7.30;3.65;;;7.90;77.20;;;;;;4989912;28;20513;-61
2023/12/27 04:58:36;;;;;;;8.35;3.20;;;7.90;77.10;;;;;;4990175;28;20046;-61
2023/12/27 05:01:08;;;;;;;6.07;3.50;;;7.80;77.00;;;;;;4989051;28;20396;-62
2023/12/27 05:03:39;;;;;;;5.70;3.30;;;7.80;77.10;;;;;;4988575;28;20034;-62
2023/12/27 05:06:08;;;;;;;4.97;3.20;;;7.70;77.00;;;;;;4984959;28;20506;-62
2023/12/27 05:08:34;;;;;;;5.50;3.10;;;7.60;77.00;;;;;;4988822;28;20506;-62
2023/12/27 05:11:00;;;;;;;8.05;3.58;;;7.50;77.00;;;;;;4987588;28;20034;-63
2023/12/27 05:13:26;;;;;;;6.35;3.10;;;7.50;77.20;;;;;;4989492;28;20034;-61
2023/12/27 05:15:52;;;;;;;6.10;3.13;;;7.40;77.20;;;;;;4989292;28;20054;-61
2023/12/27 05:18:17;;;;;;;7.93;3.72;;;7.40;77.40;;;;;;4989008;28;20034;-62
2023/12/27 05:20:43;;;;;;;7.82;3.60;;;7.30;77.50;;;;;;4987262;28;20050;-62
2023/12/27 05:23:08;;;;;;;6.05;3.63;;;7.30;77.50;;;;;;4988095;28;20044;-60
2023/12/27 05:25:34;;;;;;;6.30;4.20;;;7.20;77.60;;;;;;4989392;28;20049;-62
2023/12/27 05:28:00;;;;;;;7.60;3.78;;;7.20;77.70;;;;;;4988214;28;20034;-61
2023/12/27 05:30:25;;;;;;;5.70;3.67;;;7.20;77.70;;;;;;4988507;28;20050;-61
2023/12/27 05:32:51;;;;;;;4.25;3.42;;;7.10;77.70;;;;;;4987761;28;20035;-60
2023/12/27 05:35:16;;;;;;;6.32;3.65;;;7.10;77.70;;;;;;4988891;28;20133;-62
2023/12/27 05:37:42;;;;;;;7.72;4.00;;;7.10;77.80;;;;;;4987810;28;20522;-61
2023/12/27 05:40:08;;;;;;;6.45;3.67;;;7.00;77.80;;;;;;4987387;28;20037;-62
2023/12/27 05:42:34;;;;;;;7.60;3.83;;;7.00;77.70;;;;;;4988435;28;20534;-60
2023/12/27 05:44:59;;;;;;;9.77;3.95;;;6.90;77.70;;;;;;4987486;28;20041;-61
2023/12/27 05:47:25;;;;;;;8.18;4.40;;;6.90;77.90;;;;;;4988613;28;20569;-62
2023/12/27 05:49:50;;;;;;;7.85;3.67;;;6.80;77.90;;;;;;4988175;28;20026;-61
2023/12/27 05:52:16;;;;;;;6.75;3.90;;;6.80;78.00;;;;;;4986992;28;20121;-61
2023/12/27 05:54:42;;;;;;;5.50;3.72;;;6.80;78.10;;;;;;4985967;28;20032;-62
2023/12/27 05:57:07;;;;;;;6.00;3.67;;;6.70;78.00;;;;;;4987965;28;20054;-62
2023/12/27 05:59:33;;;;;;;6.65;3.53;;;6.70;78.10;;;;;;4988560;28;20046;-60
2023/12/27 06:01:59;;;;;;;8.50;3.90;;;6.70;78.20;;;;;;4988848;28;20120;-61
2023/12/27 06:04:24;;;;;;;6.68;3.80;;;6.60;78.20;;;;;;4988820;28;20038;-62
2023/12/27 06:06:50;;;;;;;10.68;4.10;;;6.60;78.40;;;;;;4986891;28;20027;-60
2023/12/27 06:09:20;;;;;;;6.28;3.63;;;6.60;78.50;;;;;;4986697;28;20375;-61
2023/12/27 06:11:46;;;;;;;6.70;3.90;;;6.60;78.50;;;;;;4988066;28;20061;-61
2023/12/27 06:14:12;;;;;;;8.38;4.45;;;6.60;78.50;;;;;;4988645;28;20057;-61
2023/12/27 06:16:38;;;;;;;8.82;4.70;;;6.60;78.50;;;;;;4988116;28;20085;-61
2023/12/27 06:19:04;;;;;;;10.60;5.15;;;6.60;78.40;;;;;;4987475;28;20034;-62
2023/12/27 06:21:29;;;;;;;9.35;5.30;;;6.50;78.40;;;;;;4987653;28;20050;-59
2023/12/27 06:23:56;;;;;;;9.30;5.05;;;6.50;78.40;;;;;;4987525;28;20038;-60
2023/12/27 06:26:22;;;;;;;9.65;5.30;;;6.50;78.60;;;;;;4988387;28;20042;-62
2023/12/27 06:28:48;;;;;;;8.32;4.57;;;6.40;78.60;;;;;;4987672;28;20031;-62
2023/12/27 06:31:13;;;;;;;8.75;4.90;;;6.40;78.80;;;;;;4988874;28;20042;-61
2023/12/27 06:33:39;;;;;;;7.05;4.68;;;6.40;79.00;;;;;;4987551;28;20034;-61
2023/12/27 06:36:08;;;;;;;8.60;5.60;;;6.40;79.00;;;;;;4987659;28;20126;-61
2023/12/27 06:38:34;;;;;;;8.23;5.18;;;6.40;79.20;;;;;;4987995;28;20044;-61
2023/12/27 06:41:02;;;;;;;8.00;5.30;;;6.30;79.20;;;;;;4987421;28;20034;-62
2023/12/27 06:43:28;;;;;;;10.18;5.40;;;6.30;79.20;;;;;;4987874;28;20030;-60
2023/12/27 06:45:54;;;;;;;8.57;5.20;;;6.30;79.30;;;;;;4987771;28;20056;-60
2023/12/27 06:48:19;;;;;;;10.75;5.63;;;6.20;79.30;;;;;;4986364;28;20417;-61
2023/12/27 06:50:45;;;;;;;12.55;5.68;;;6.20;79.40;;;;;;4986422;28;20042;-61
2023/12/27 06:53:11;;;;;;;9.13;5.07;;;6.10;79.50;;;;;;4991361;28;20035;-59
2023/12/27 06:55:36;;;;;;;8.68;5.20;;;6.20;79.80;;;;;;4991017;28;20165;-61
2023/12/27 06:58:03;;;;;;;9.65;5.07;;;6.10;79.70;;;;;;4990900;28;20030;-60
2023/12/27 07:00:28;;;;;;;10.02;5.15;;;6.10;79.70;;;;;;4991393;28;20040;-59
2023/12/27 07:02:54;;;;;;;9.10;4.63;;;6.10;79.70;;;;;;4991031;28;20496;-60
2023/12/27 07:05:20;;;;;;;7.63;4.70;;;6.00;79.80;;;;;;4990798;28;20035;-62
2023/12/27 07:07:46;;;;;;;9.75;4.80;;;6.00;79.80;;;;;;4987977;28;20097;-61
2023/12/27 07:10:11;;;;;;;9.80;5.03;;;6.00;79.80;;;;;;4985779;28;20042;-61
2023/12/27 07:12:38;;;;;;;6.45;4.63;;;6.00;79.80;;;;;;4991528;28;20525;-60
2023/12/27 07:15:05;;;;;;;5.68;4.03;;;6.00;79.70;;;;;;4990773;28;20038;-61
2023/12/27 07:17:30;;;;;;;6.53;4.07;;;6.00;79.70;;;;;;4991591;28;20041;-61
2023/12/27 07:19:56;;;;;;;6.20;4.38;;;5.90;79.70;;;;;;4991003;28;20023;-62
2023/12/27 07:22:21;;;;;;;7.68;4.55;;;5.90;79.70;;;;;;4990946;28;20074;-61
2023/12/27 07:24:48;;;;;;;10.07;4.38;;;5.90;79.90;;;;;;4991420;28;20490;-62
2023/12/27 07:27:13;;;;;;;8.55;4.15;;;5.80;79.90;;;;;;4991585;28;20447;-61
2023/12/27 07:29:40;;;;;;;6.03;4.15;;;5.80;80.00;;;;;;4989808;28;20141;-61
2023/12/27 07:32:05;;;;;;;8.70;4.10;;;5.80;80.30;;;;;;4992719;28;20026;-60
2023/12/27 07:34:32;;;;;;;9.82;5.45;;;5.70;80.30;;;;;;4989106;28;20031;-60
2023/12/27 07:36:58;;;;;;;10.05;5.75;;;5.70;80.40;;;;;;4989696;28;20274;-61
2023/12/27 07:39:23;;;;;;;10.20;5.90;;;5.70;80.50;;;;;;4986741;28;20042;-60
2023/12/27 07:41:49;;;;;;;10.77;6.55;;;5.70;80.60;;;;;;4990813;28;20089;-60
2023/12/27 07:44:16;;;;;;;11.10;7.20;;;5.70;80.60;;;;;;4991245;28;20510;-58
2023/12/27 07:46:45;;;;;;;11.60;6.90;;;5.70;80.60;;;;;;4989627;28;20330;-60
2023/12/27 07:49:10;;;;;;;12.07;6.57;;;5.70;80.60;;;;;;4990771;28;20035;-61
2023/12/27 07:51:36;;;;;;;10.65;6.32;;;5.70;80.60;;;;;;4989778;28;20031;-61
2023/12/27 07:54:02;;;;;;;10.07;6.80;;;5.70;80.60;;;;;;4990634;28;20034;-61
2023/12/27 07:56:28;;;;;;;8.07;6.28;;;5.70;80.70;;;;;;4989035;28;20621;-62
2023/12/27 07:58:54;;;;;;;14.20;6.97;;;5.70;80.80;;;;;;4989910;28;20026;-62
2023/12/27 08:01:20;;;;;;;12.07;6.53;;;5.70;80.80;;;;;;4989867;28;20417;-62
2023/12/27 08:03:46;;;;;;;13.07;6.93;;;5.70;80.90;;;;;;4991349;28;20034;-61
2023/12/27 08:06:12;;;;;;;16.80;7.82;;;5.70;80.90;;;;;;4990161;28;20641;-61
2023/12/27 08:08:37;;;;;;;15.90;8.32;;;5.80;81.10;;;;;;4991188;28;20042;-61
2023/12/27 08:11:03;;;;;;;12.90;7.75;;;5.80;81.30;;;;;;4989671;28;20517;-61
2023/12/27 08:13:32;;;;;;;13.38;8.30;;;5.80;81.30;;;;;;4990746;28;20113;-60
2023/12/27 08:15:58;;;;;;;15.07;8.73;;;5.80;81.40;;;;;;4989911;28;20039;-62
2023/12/27 08:18:24;;;;;;;16.15;8.85;;;5.80;81.50;;;;;;4989030;28;20556;-62
2023/12/27 08:20:49;;;;;;;17.90;10.32;;;5.80;81.60;;;;;;4989570;28;20054;-60
2023/12/27 08:23:18;;;;;;;19.35;12.07;;;5.90;81.70;;;;;;4990360;28;20038;-61
2023/12/27 08:25:47;;;;;;;16.30;11.75;;;5.90;81.70;;;;;;4990064;28;20038;-62
2023/12/27 08:28:14;;;;;;;25.38;15.00;;;5.90;81.90;;;;;;4988569;28;20121;-61
2023/12/27 08:30:40;;;;;;;22.40;14.38;;;6.00;82.00;;;;;;4989142;28;20470;-61
2023/12/27 08:33:06;;;;;;;23.40;13.45;;;6.00;82.10;;;;;;4990219;28;20066;-61
2023/12/27 08:35:38;;;;;;;18.25;11.48;;;6.00;82.10;;;;;;4988120;28;20073;-60
2023/12/27 08:38:08;;;;;;;18.40;10.57;;;6.10;82.40;;;;;;4988219;28;20553;-62
2023/12/27 08:40:34;;;;;;;16.55;10.80;;;6.10;82.40;;;;;;4989469;28;20519;-62
2023/12/27 08:43:00;;;;;;;12.80;8.07;;;6.20;82.60;;;;;;4988267;28;20030;-61
2023/12/27 08:45:26;;;;;;;18.52;8.32;;;6.20;82.60;;;;;;4989474;28;20100;-62
2023/12/27 08:47:51;;;;;;;13.82;8.18;;;6.20;82.60;;;;;;4988971;28;20488;-62
2023/12/27 08:50:17;;;;;;;14.13;8.18;;;6.30;82.70;;;;;;4979847;28;20046;-62
2023/12/27 08:52:42;;;;;;;15.55;9.30;;;6.30;82.80;;;;;;4974906;28;20122;-62
2023/12/27 08:55:10;;;;;;;16.13;11.13;;;6.40;82.80;;;;;;4983618;28;20050;-62
2023/12/27 08:57:36;;;;;;;12.82;6.72;;;6.40;82.90;;;;;;4985373;28;20419;-61
2023/12/27 09:00:03;;;;;;;13.07;6.22;;;6.50;82.80;;;;;;4987086;28;20035;-62
2023/12/27 09:02:28;;;;;;;8.20;5.47;;;6.50;82.90;;;;;;4984676;28;20045;-62
2023/12/27 09:04:54;;;;;;;9.50;5.13;;;6.60;83.00;;;;;;4982829;28;20034;-62
2023/12/27 09:07:19;;;;;;;7.68;4.70;;;6.60;83.00;;;;;;4986432;28;20093;-61
2023/12/27 09:09:45;;;;;;;8.18;4.88;;;6.60;83.00;;;;;;4981862;28;20061;-61
2023/12/27 09:12:10;;;;;;;6.57;4.75;;;6.70;82.90;;;;;;4984421;28;20038;-60
2023/12/27 09:14:39;;;;;;;7.88;4.93;;;6.70;83.00;;;;;;4982943;28;20050;-60
2023/12/27 09:17:05;;;;;;;8.30;4.82;;;6.70;82.90;;;;;;4984657;28;20054;-60
2023/12/27 09:19:31;;;;;;;10.13;5.10;;;6.80;82.90;;;;;;4987917;28;20034;-61
2023/12/27 09:21:56;;;;;;;7.15;4.65;;;6.80;82.90;;;;;;4985543;28;20562;-59
2023/12/27 09:24:22;;;;;;;6.65;4.30;;;6.90;82.90;;;;;;4981882;28;20058;-61
2023/12/27 09:26:48;;;;;;;6.88;4.28;;;6.90;82.70;;;;;;4987243;28;20065;-60
2023/12/27 09:29:14;;;;;;;7.50;4.25;;;7.00;82.60;;;;;;4983518;28;20062;-60
2023/12/27 09:31:41;;;;;;;4.43;3.45;;;7.00;82.30;;;;;;4981891;28;20027;-61
2023/12/27 09:34:07;;;;;;;5.38;3.60;;;7.10;82.00;;;;;;4985353;28;20034;-61
2023/12/27 09:36:32;;;;;;;4.85;3.33;;;7.10;81.50;;;;;;4986417;28;20125;-61
2023/12/27 09:38:58;;;;;;;5.32;3.42;;;7.20;81.20;;;;;;4979595;28;20026;-62
2023/12/27 09:41:24;;;;;;;5.57;3.45;;;7.20;81.00;;;;;;4985953;28;20042;-61
2023/12/27 09:43:53;;;;;;;4.70;3.25;;;7.30;81.00;;;;;;4984341;28;20027;-61
2023/12/27 09:46:20;;;;;;;4.55;3.38;;;7.40;80.80;;;;;;4980343;28;20129;-62
2023/12/27 09:48:45;;;;;;;5.45;2.95;;;7.40;80.50;;;;;;4980953;28;20046;-62
2023/12/27 09:51:11;;;;;;;4.25;3.35;;;7.50;80.00;;;;;;4981917;28;20112;-61
2023/12/27 09:53:40;;;;;;;4.72;3.53;;;7.50;79.80;;;;;;4984131;28;20065;-62
2023/12/27 09:56:07;;;;;;;6.63;3.30;;;7.60;79.70;;;;;;4981716;28;20065;-62
2023/12/27 09:58:35;;;;;;;5.85;3.63;;;7.60;79.50;;;;;;4982104;28;20525;-62
2023/12/27 10:01:02;;;;;;;4.25;3.33;;;7.70;79.40;;;;;;4978884;28;20038;-60
2023/12/27 10:03:35;;;;;;;4.15;3.00;;;7.80;79.20;;;;;;4980529;28;20035;-61
2023/12/27 10:06:14;;;;;;;7.28;3.20;;;7.80;78.80;;;;;;4978866;28;20136;-60
2023/12/27 10:08:39;;;;;;;5.22;2.85;;;7.90;78.70;;;;;;4984675;28;20046;-60
2023/12/27 10:11:08;;;;;;;5.43;4.30;;;8.00;78.70;;;;;;4979641;28;20038;-61
2023/12/27 10:13:37;;;;;;;6.93;3.50;;;8.00;78.60;;;;;;4975402;28;20121;-62
2023/12/27 10:16:04;;;;;;;4.88;2.88;;;8.10;78.40;;;;;;4974825;28;20039;-61
2023/12/27 10:18:30;;;;;;;8.77;5.15;;;8.20;78.00;;;;;;4982151;28;20034;-61
2023/12/27 10:20:56;;;;;;;3.95;3.00;;;8.20;77.80;;;;;;4982204;28;20031;-61
2023/12/27 10:23:22;;;;;;;5.20;3.40;;;8.30;77.50;;;;;;4984597;28;20038;-60
2023/12/27 10:25:48;;;;;;;3.22;2.38;;;8.40;77.50;;;;;;4985765;28;20084;-62
2023/12/27 10:28:14;;;;;;;3.45;2.40;;;8.40;77.00;;;;;;4984403;28;20042;-62
2023/12/27 10:30:39;;;;;;;3.63;2.50;;;8.50;76.80;;;;;;4983953;28;20037;-62
2023/12/27 10:33:05;;;;;;;2.90;2.28;;;8.60;76.70;;;;;;4984577;28;20065;-62
2023/12/27 10:35:38;;;;;;;3.38;2.38;;;8.60;76.50;;;;;;4985516;28;20039;-62
2023/12/27 10:38:05;;;;;;;2.50;2.25;;;8.70;76.30;;;;;;4989792;28;20030;-61
2023/12/27 10:40:32;;;;;;;4.75;2.22;;;8.70;76.00;;;;;;4991486;28;20026;-62
2023/12/27 10:42:58;;;;;;;3.33;2.10;;;8.70;75.80;;;;;;4989408;28;20145;-61
2023/12/27 10:45:24;;;;;;;3.58;2.10;;;8.80;75.80;;;;;;4991618;28;20118;-62
2023/12/27 10:47:56;;;;;;;3.38;2.10;;;8.80;75.70;;;;;;4991277;28;20410;-60
2023/12/27 10:50:22;;;;;;;3.22;2.50;;;8.90;75.60;;;;;;4990996;28;20046;-61
2023/12/27 10:52:56;;;;;;;3.28;2.17;;;8.90;75.60;;;;;;4989360;28;20077;-62
2023/12/27 10:55:25;;;;;;;3.28;2.13;;;9.00;75.10;;;;;;4990922;28;20046;-60
2023/12/27 10:57:54;;;;;;;4.20;2.65;;;9.00;75.30;;;;;;4990542;28;20027;-62
2023/12/27 11:00:24;;;;;;;4.82;2.28;;;9.10;74.80;;;;;;4991062;28;20043;-61
2023/12/27 11:02:51;;;;;;;3.45;2.10;;;9.10;74.90;;;;;;4991072;28;20035;-64
2023/12/27 11:05:24;;;;;;;3.22;2.70;;;9.20;74.80;;;;;;4992193;28;20800;-61
2023/12/27 11:07:52;;;;;;;3.55;2.60;;;9.20;74.70;;;;;;4990633;28;20077;-62
2023/12/27 11:10:17;;;;;;;3.97;2.40;;;9.30;74.70;;;;;;4991541;28;20034;-62
2023/12/27 11:12:45;;;;;;;5.70;2.35;;;9.30;74.70;;;;;;4991051;28;20030;-61
2023/12/27 11:15:18;;;;;;;4.40;2.40;;;9.40;74.70;;;;;;4989461;28;20366;-60
2023/12/27 11:17:45;;;;;;;3.67;2.50;;;9.40;74.40;;;;;;4992058;28;20041;-59
2023/12/27 11:20:12;;;;;;;2.92;2.10;;;9.40;74.10;;;;;;4991827;28;20042;-56
2023/12/27 11:22:39;;;;;;;3.78;2.20;;;9.50;74.20;;;;;;4988902;28;20085;-62
2023/12/27 11:25:06;;;;;;;3.25;2.20;;;9.50;74.30;;;;;;4986691;28;20173;-61
2023/12/27 11:27:31;;;;;;;4.07;2.72;;;9.50;74.30;;;;;;4989137;28;20037;-61
2023/12/27 11:29:58;;;;;;;4.60;2.38;;;9.60;74.40;;;;;;4990761;28;20409;-62
2023/12/27 11:32:28;;;;;;;2.50;2.05;;;9.60;74.20;;;;;;4990223;28;20045;-62
2023/12/27 11:34:55;;;;;;;3.60;1.88;;;9.80;74.20;;;;;;4986206;28;20033;-62
2023/12/27 11:37:22;;;;;;;2.78;1.98;;;9.80;73.90;;;;;;4989588;28;20038;-61
2023/12/27 11:39:50;;;;;;;4.85;2.10;;;9.80;73.70;;;;;;4988192;28;20034;-62
2023/12/27 11:42:16;;;;;;;4.13;2.30;;;9.80;73.70;;;;;;4989220;28;20411;-61
2023/12/27 11:44:47;;;;;;;3.38;2.25;;;9.90;73.60;;;;;;4991154;28;20030;-60
2023/12/27 11:47:15;;;;;;;4.30;2.28;;;9.90;73.40;;;;;;4989894;28;20030;-60
2023/12/27 11:49:42;;;;;;;6.75;2.85;;;10.00;73.50;;;;;;4989571;28;20061;-62
2023/12/27 11:52:08;;;;;;;3.83;2.33;;;10.00;73.30;;;;;;4991989;28;20060;-62
2023/12/27 11:54:33;;;;;;;5.22;2.28;;;10.10;73.30;;;;;;4991116;28;20034;-60
2023/12/27 11:56:59;;;;;;;4.47;2.30;;;10.20;73.20;;;;;;4992990;28;20462;-62
2023/12/27 11:59:26;;;;;;;5.43;2.50;;;10.20;73.00;;;;;;4995696;28;20042;-62
2023/12/27 12:01:52;;;;;;;5.43;2.00;;;10.30;72.90;;;;;;4990964;28;20041;-61
2023/12/27 12:04:30;;;;;;;3.92;2.10;;;10.30;72.60;;;;;;4991921;28;20121;-60
2023/12/27 12:07:32;;;;;;;3.92;1.88;;;10.40;72.20;;;;;;4991054;28;20064;-59
2023/12/27 12:09:57;;;;;;;3.22;1.83;;;10.50;72.50;;;;;;4946431;28;20038;-61
2023/12/27 12:12:24;;;;;;;3.67;1.83;;;10.50;72.30;;;;;;4982839;28;20046;-61
2023/12/27 12:14:54;;;;;;;3.15;2.00;;;10.60;72.10;;;;;;4988496;28;20045;-62
2023/12/27 12:17:20;;;;;;;3.15;1.88;;;10.70;72.10;;;;;;4992516;28;20054;-62
2023/12/27 12:19:48;;;;;;;2.30;1.70;;;10.70;71.90;;;;;;4991220;28;20034;-61
2023/12/27 12:22:15;;;;;;;3.47;1.80;;;10.80;71.30;;;;;;4988310;28;20038;-62
2023/12/27 12:24:41;;;;;;;3.42;1.55;;;10.90;71.00;;;;;;4986697;28;20038;-60
2023/12/27 12:27:07;;;;;;;2.60;1.80;;;10.90;70.90;;;;;;4988298;28;20113;-60
2023/12/27 12:29:33;;;;;;;2.63;1.67;;;11.00;70.90;;;;;;4987641;28;20490;-61
2023/12/27 12:31:59;;;;;;;2.65;1.63;;;11.10;70.40;;;;;;4989571;28;20057;-60
2023/12/27 12:34:25;;;;;;;3.05;1.85;;;11.10;69.80;;;;;;4985107;28;20045;-62
2023/12/27 12:36:52;;;;;;;2.45;1.77;;;11.10;69.90;;;;;;4991220;28;20453;-61
2023/12/27 12:39:21;;;;;;;3.17;2.03;;;11.20;70.10;;;;;;4988835;28;20038;-62
2023/12/27 12:41:47;;;;;;;4.68;2.05;;;11.20;70.00;;;;;;4991729;28;20422;-62
2023/12/27 12:44:13;;;;;;;2.85;1.60;;;11.20;69.90;;;;;;4990477;28;20045;-62
2023/12/27 12:46:39;;;;;;;2.42;1.60;;;11.30;69.30;;;;;;4989875;28;20034;-62
2023/12/27 12:49:06;;;;;;;2.33;1.70;;;11.30;69.20;;;;;;4984448;28;20514;-62
2023/12/27 12:51:32;;;;;;;3.35;1.73;;;11.40;69.20;;;;;;4987238;28;20414;-62